sensor_id;sensor_type;location;lat;lon;timestamp;P1;durP1;ratioP1;P2;durP2;ratioP2
40601;SDS011;26310;50.278;19.032;2022-12-18T00:01:58;25.03;;;11.10;;
40601;SDS011;26310;50.278;19.032;2022-12-18T00:07:01;34.17;;;13.03;;
40601;SDS011;26310;50.278;19.032;2022-12-18T00:12:04;24.03;;;12.07;;
40601;SDS011;26310;50.278;19.032;2022-12-18T00:17:16;25.27;;;13.20;;
40601;SDS011;26310;50.278;19.032;2022-12-18T00:22:19;20.60;;;11.33;;
40601;SDS011;26310;50.278;19.032;2022-12-18T00:27:21;37.13;;;12.40;;
40601;SDS011;26310;50.278;19.032;2022-12-18T05:34:22;30.07;;;15.57;;
40601;SDS011;26310;50.278;19.032;2022-12-18T05:39:25;34.67;;;13.63;;
40601;SDS011;26310;50.278;19.032;2022-12-18T05:44:29;37.00;;;16.60;;
40601;SDS011;26310;50.278;19.032;2022-12-18T05:49:32;33.03;;;15.97;;
40601;SDS011;26310;50.278;19.032;2022-12-18T05:54:36;38.30;;;16.33;;
40601;SDS011;26310;50.278;19.032;2022-12-18T05:59:39;38.07;;;17.60;;
40601;SDS011;26310;50.278;19.032;2022-12-18T06:04:42;46.27;;;17.87;;
40601;SDS011;26310;50.278;19.032;2022-12-18T06:09:46;44.80;;;18.17;;
40601;SDS011;26310;50.278;19.032;2022-12-18T06:14:49;45.17;;;17.47;;
40601;SDS011;26310;50.278;19.032;2022-12-18T06:19:53;42.70;;;16.33;;
40601;SDS011;26310;50.278;19.032;2022-12-18T06:24:56;62.47;;;20.23;;
40601;SDS011;26310;50.278;19.032;2022-12-18T06:29:59;46.07;;;18.20;;
40601;SDS011;26310;50.278;19.032;2022-12-18T06:35:04;46.83;;;18.60;;
40601;SDS011;26310;50.278;19.032;2022-12-18T06:40:08;44.70;;;19.90;;
40601;SDS011;26310;50.278;19.032;2022-12-18T06:45:11;47.57;;;19.63;;
40601;SDS011;26310;50.278;19.032;2022-12-18T06:50:15;46.17;;;17.80;;
40601;SDS011;26310;50.278;19.032;2022-12-18T06:55:18;40.90;;;20.50;;
40601;SDS011;26310;50.278;19.032;2022-12-18T07:00:21;42.47;;;18.70;;
40601;SDS011;26310;50.278;19.032;2022-12-18T07:05:25;50.20;;;20.17;;
40601;SDS011;26310;50.278;19.032;2022-12-18T07:10:28;62.20;;;20.40;;
40601;SDS011;26310;50.278;19.032;2022-12-18T07:15:32;57.30;;;19.80;;
40601;SDS011;26310;50.278;19.032;2022-12-18T07:20:35;51.60;;;20.17;;
40601;SDS011;26310;50.278;19.032;2022-12-18T07:25:39;42.37;;;18.53;;
40601;SDS011;26310;50.278;19.032;2022-12-18T07:30:42;43.53;;;18.20;;
40601;SDS011;26310;50.278;19.032;2022-12-18T07:35:46;56.93;;;20.70;;
40601;SDS011;26310;50.278;19.032;2022-12-18T07:40:49;63.07;;;21.27;;
40601;SDS011;26310;50.278;19.032;2022-12-18T07:45:53;61.10;;;22.47;;
40601;SDS011;26310;50.278;19.032;2022-12-18T07:51:00;43.63;;;17.47;;
40601;SDS011;26310;50.278;19.032;2022-12-18T07:56:05;69.73;;;22.33;;
40601;SDS011;26310;50.278;19.032;2022-12-18T08:01:29;53.77;;;21.77;;
40601;SDS011;26310;50.278;19.032;2022-12-18T08:06:32;54.90;;;23.10;;
40601;SDS011;26310;50.278;19.032;2022-12-18T08:11:36;52.60;;;20.97;;
40601;SDS011;26310;50.278;19.032;2022-12-18T08:16:39;59.40;;;22.43;;
40601;SDS011;26310;50.278;19.032;2022-12-18T08:21:43;67.10;;;24.50;;
40601;SDS011;26310;50.278;19.032;2022-12-18T08:26:46;56.77;;;21.77;;
40601;SDS011;26310;50.278;19.032;2022-12-18T08:32:09;55.00;;;21.17;;
40601;SDS011;26310;50.278;19.032;2022-12-18T08:37:13;65.97;;;20.50;;
40601;SDS011;26310;50.278;19.032;2022-12-18T08:42:16;58.27;;;23.63;;
40601;SDS011;26310;50.278;19.032;2022-12-18T08:47:38;51.27;;;22.03;;
40601;SDS011;26310;50.278;19.032;2022-12-18T08:52:41;48.50;;;21.20;;
40601;SDS011;26310;50.278;19.032;2022-12-18T08:57:47;50.13;;;19.27;;
40601;SDS011;26310;50.278;19.032;2022-12-18T09:02:51;61.83;;;19.97;;
40601;SDS011;26310;50.278;19.032;2022-12-18T09:07:55;56.63;;;24.10;;
40601;SDS011;26310;50.278;19.032;2022-12-18T09:12:58;44.60;;;18.10;;
40601;SDS011;26310;50.278;19.032;2022-12-18T09:18:02;49.10;;;20.70;;
40601;SDS011;26310;50.278;19.032;2022-12-18T09:23:05;56.07;;;19.23;;
40601;SDS011;26310;50.278;19.032;2022-12-18T09:28:10;43.47;;;17.37;;
40601;SDS011;26310;50.278;19.032;2022-12-18T09:33:15;43.07;;;15.93;;
40601;SDS011;26310;50.278;19.032;2022-12-18T09:38:19;43.23;;;15.33;;
40601;SDS011;26310;50.278;19.032;2022-12-18T09:43:30;38.63;;;14.87;;
40601;SDS011;26310;50.278;19.032;2022-12-18T09:48:47;37.03;;;16.43;;
40601;SDS011;26310;50.278;19.032;2022-12-18T09:53:57;44.23;;;15.20;;
40601;SDS011;26310;50.278;19.032;2022-12-18T09:59:15;38.63;;;15.77;;
40601;SDS011;26310;50.278;19.032;2022-12-18T10:04:26;43.00;;;17.07;;
40601;SDS011;26310;50.278;19.032;2022-12-18T10:09:37;39.20;;;17.13;;
40601;SDS011;26310;50.278;19.032;2022-12-18T10:20:32;50.53;;;18.13;;
40601;SDS011;26310;50.278;19.032;2022-12-18T10:25:50;50.50;;;17.27;;
40601;SDS011;26310;50.278;19.032;2022-12-18T10:30:55;38.43;;;17.50;;
40601;SDS011;26310;50.278;19.032;2022-12-18T10:35:58;34.67;;;16.13;;
40601;SDS011;26310;50.278;19.032;2022-12-18T10:41:03;50.80;;;17.53;;
40601;SDS011;26310;50.278;19.032;2022-12-18T10:51:18;42.70;;;17.83;;
40601;SDS011;26310;50.278;19.032;2022-12-18T10:56:24;51.77;;;17.53;;
40601;SDS011;26310;50.278;19.032;2022-12-18T11:01:28;40.57;;;17.93;;
40601;SDS011;26310;50.278;19.032;2022-12-18T11:06:53;46.10;;;16.50;;
40601;SDS011;26310;50.278;19.032;2022-12-18T11:12:01;40.50;;;16.13;;
40601;SDS011;26310;50.278;19.032;2022-12-18T11:17:17;39.20;;;15.20;;
40601;SDS011;26310;50.278;19.032;2022-12-18T11:22:28;38.10;;;14.77;;
40601;SDS011;26310;50.278;19.032;2022-12-18T11:27:39;38.03;;;16.50;;
40601;SDS011;26310;50.278;19.032;2022-12-18T11:32:43;32.63;;;14.73;;
40601;SDS011;26310;50.278;19.032;2022-12-18T11:37:54;36.70;;;13.37;;
40601;SDS011;26310;50.278;19.032;2022-12-18T11:43:21;33.67;;;14.80;;
40601;SDS011;26310;50.278;19.032;2022-12-18T11:48:58;39.30;;;16.93;;
40601;SDS011;26310;50.278;19.032;2022-12-18T11:54:22;46.40;;;18.83;;
40601;SDS011;26310;50.278;19.032;2022-12-18T11:59:42;38.77;;;16.27;;
40601;SDS011;26310;50.278;19.032;2022-12-18T12:10:23;49.43;;;19.10;;
40601;SDS011;26310;50.278;19.032;2022-12-18T12:26:11;50.20;;;19.17;;
40601;SDS011;26310;50.278;19.032;2022-12-18T12:42:12;36.83;;;17.17;;
40601;SDS011;26310;50.278;19.032;2022-12-18T12:47:41;42.53;;;16.60;;
40601;SDS011;26310;50.278;19.032;2022-12-18T12:52:53;39.10;;;15.80;;
40601;SDS011;26310;50.278;19.032;2022-12-18T13:09:06;31.07;;;15.07;;
40601;SDS011;26310;50.278;19.032;2022-12-18T13:14:19;28.73;;;12.27;;
40601;SDS011;26310;50.278;19.032;2022-12-18T13:19:31;25.80;;;10.90;;
40601;SDS011;26310;50.278;19.032;2022-12-18T13:24:34;28.37;;;13.33;;
40601;SDS011;26310;50.278;19.032;2022-12-18T13:29:42;29.07;;;12.13;;
40601;SDS011;26310;50.278;19.032;2022-12-18T13:34:47;33.97;;;13.30;;
40601;SDS011;26310;50.278;19.032;2022-12-18T13:39:51;33.40;;;12.70;;
40601;SDS011;26310;50.278;19.032;2022-12-18T13:44:55;40.37;;;16.67;;
40601;SDS011;26310;50.278;19.032;2022-12-18T13:49:59;33.50;;;15.13;;
40601;SDS011;26310;50.278;19.032;2022-12-18T13:55:06;39.97;;;14.93;;
40601;SDS011;26310;50.278;19.032;2022-12-18T14:00:23;33.73;;;12.60;;
40601;SDS011;26310;50.278;19.032;2022-12-18T14:10:35;35.07;;;15.77;;
40601;SDS011;26310;50.278;19.032;2022-12-18T14:15:51;46.57;;;17.07;;
40601;SDS011;26310;50.278;19.032;2022-12-18T14:21:00;40.10;;;16.33;;
40601;SDS011;26310;50.278;19.032;2022-12-18T14:31:31;45.30;;;18.90;;
40601;SDS011;26310;50.278;19.032;2022-12-18T14:36:34;35.47;;;17.23;;
40601;SDS011;26310;50.278;19.032;2022-12-18T14:41:38;35.30;;;16.97;;
40601;SDS011;26310;50.278;19.032;2022-12-18T14:46:42;42.07;;;18.53;;
40601;SDS011;26310;50.278;19.032;2022-12-18T14:51:52;38.73;;;18.13;;
40601;SDS011;26310;50.278;19.032;2022-12-18T15:02:42;38.23;;;17.13;;
40601;SDS011;26310;50.278;19.032;2022-12-18T15:07:42;43.00;;;19.83;;
40601;SDS011;26310;50.278;19.032;2022-12-18T15:18:00;41.03;;;19.97;;
40601;SDS011;26310;50.278;19.032;2022-12-18T15:23:03;40.50;;;19.00;;
40601;SDS011;26310;50.278;19.032;2022-12-18T15:28:15;48.73;;;21.90;;
40601;SDS011;26310;50.278;19.032;2022-12-18T15:33:25;48.50;;;23.23;;
40601;SDS011;26310;50.278;19.032;2022-12-18T15:38:30;54.40;;;22.60;;
40601;SDS011;26310;50.278;19.032;2022-12-18T15:43:34;53.73;;;24.03;;
40601;SDS011;26310;50.278;19.032;2022-12-18T15:48:42;72.67;;;31.00;;
40601;SDS011;26310;50.278;19.032;2022-12-18T15:53:50;72.27;;;31.57;;
40601;SDS011;26310;50.278;19.032;2022-12-18T15:58:55;64.33;;;28.00;;
40601;SDS011;26310;50.278;19.032;2022-12-18T16:03:59;56.67;;;24.83;;
40601;SDS011;26310;50.278;19.032;2022-12-18T16:09:03;73.40;;;27.10;;
40601;SDS011;26310;50.278;19.032;2022-12-18T16:14:23;65.67;;;24.47;;
40601;SDS011;26310;50.278;19.032;2022-12-18T16:19:29;46.07;;;24.07;;
40601;SDS011;26310;50.278;19.032;2022-12-18T16:24:33;51.67;;;22.83;;
40601;SDS011;26310;50.278;19.032;2022-12-18T16:29:38;54.93;;;25.83;;
40601;SDS011;26310;50.278;19.032;2022-12-18T16:34:41;60.77;;;26.50;;
40601;SDS011;26310;50.278;19.032;2022-12-18T16:39:45;62.80;;;26.70;;
40601;SDS011;26310;50.278;19.032;2022-12-18T16:44:49;62.47;;;30.00;;
40601;SDS011;26310;50.278;19.032;2022-12-18T16:49:53;68.77;;;32.70;;
40601;SDS011;26310;50.278;19.032;2022-12-18T16:54:56;87.87;;;32.27;;
40601;SDS011;26310;50.278;19.032;2022-12-18T17:00:00;74.63;;;30.93;;
40601;SDS011;26310;50.278;19.032;2022-12-18T17:05:06;75.03;;;31.87;;
40601;SDS011;26310;50.278;19.032;2022-12-18T17:10:10;64.77;;;30.43;;
40601;SDS011;26310;50.278;19.032;2022-12-18T17:15:14;68.77;;;30.73;;
40601;SDS011;26310;50.278;19.032;2022-12-18T17:20:19;70.00;;;31.93;;
40601;SDS011;26310;50.278;19.032;2022-12-18T17:25:23;66.43;;;28.63;;
40601;SDS011;26310;50.278;19.032;2022-12-18T17:30:28;65.47;;;30.87;;
40601;SDS011;26310;50.278;19.032;2022-12-18T17:35:32;68.53;;;28.10;;
40601;SDS011;26310;50.278;19.032;2022-12-18T17:40:35;59.20;;;25.27;;
40601;SDS011;26310;50.278;19.032;2022-12-18T17:45:52;60.00;;;28.30;;
40601;SDS011;26310;50.278;19.032;2022-12-18T17:51:04;58.33;;;27.40;;
40601;SDS011;26310;50.278;19.032;2022-12-18T17:56:11;63.23;;;28.67;;
40601;SDS011;26310;50.278;19.032;2022-12-18T18:01:17;81.23;;;31.73;;
40601;SDS011;26310;50.278;19.032;2022-12-18T18:06:22;85.93;;;33.63;;
40601;SDS011;26310;50.278;19.032;2022-12-18T18:11:26;84.60;;;37.00;;
40601;SDS011;26310;50.278;19.032;2022-12-18T18:16:49;84.27;;;34.57;;
40601;SDS011;26310;50.278;19.032;2022-12-18T18:21:53;68.33;;;31.27;;
40601;SDS011;26310;50.278;19.032;2022-12-18T18:26:57;91.10;;;32.90;;
40601;SDS011;26310;50.278;19.032;2022-12-18T18:32:01;67.43;;;31.77;;
40601;SDS011;26310;50.278;19.032;2022-12-18T18:37:04;66.07;;;30.07;;
40601;SDS011;26310;50.278;19.032;2022-12-18T18:42:08;63.57;;;27.70;;
40601;SDS011;26310;50.278;19.032;2022-12-18T18:47:12;60.53;;;23.73;;
40601;SDS011;26310;50.278;19.032;2022-12-18T18:52:15;59.67;;;26.73;;
40601;SDS011;26310;50.278;19.032;2022-12-18T18:57:19;59.53;;;25.40;;
40601;SDS011;26310;50.278;19.032;2022-12-18T19:02:27;69.93;;;30.20;;
40601;SDS011;26310;50.278;19.032;2022-12-18T19:07:30;56.23;;;24.30;;
40601;SDS011;26310;50.278;19.032;2022-12-18T19:12:34;70.23;;;30.17;;
40601;SDS011;26310;50.278;19.032;2022-12-18T19:17:56;78.37;;;29.23;;
40601;SDS011;26310;50.278;19.032;2022-12-18T19:22:59;57.07;;;26.47;;
40601;SDS011;26310;50.278;19.032;2022-12-18T19:28:02;63.00;;;27.13;;
40601;SDS011;26310;50.278;19.032;2022-12-18T19:33:09;72.70;;;28.57;;
40601;SDS011;26310;50.278;19.032;2022-12-18T19:38:32;53.10;;;24.53;;
40601;SDS011;26310;50.278;19.032;2022-12-18T19:43:36;57.50;;;26.27;;
40601;SDS011;26310;50.278;19.032;2022-12-18T19:48:40;61.27;;;26.27;;
40601;SDS011;26310;50.278;19.032;2022-12-18T19:53:45;69.03;;;27.67;;
40601;SDS011;26310;50.278;19.032;2022-12-18T19:58:49;87.83;;;30.80;;
40601;SDS011;26310;50.278;19.032;2022-12-18T20:03:52;66.33;;;26.17;;
40601;SDS011;26310;50.278;19.032;2022-12-18T20:09:00;70.83;;;25.37;;
40601;SDS011;26310;50.278;19.032;2022-12-18T20:14:06;52.77;;;29.70;;
40601;SDS011;26310;50.278;19.032;2022-12-18T20:19:10;82.77;;;31.90;;
40601;SDS011;26310;50.278;19.032;2022-12-18T20:24:15;61.93;;;28.10;;
40601;SDS011;26310;50.278;19.032;2022-12-18T20:29:19;82.20;;;29.57;;
40601;SDS011;26310;50.278;19.032;2022-12-18T20:34:22;81.60;;;31.63;;
40601;SDS011;26310;50.278;19.032;2022-12-18T20:39:26;71.40;;;32.00;;
40601;SDS011;26310;50.278;19.032;2022-12-18T20:44:31;66.17;;;30.63;;
40601;SDS011;26310;50.278;19.032;2022-12-18T20:49:35;80.03;;;32.90;;
40601;SDS011;26310;50.278;19.032;2022-12-18T20:54:40;80.17;;;31.87;;
40601;SDS011;26310;50.278;19.032;2022-12-18T20:59:44;86.20;;;31.80;;
40601;SDS011;26310;50.278;19.032;2022-12-18T21:04:49;60.90;;;26.67;;
40601;SDS011;26310;50.278;19.032;2022-12-18T21:09:53;79.63;;;25.73;;
40601;SDS011;26310;50.278;19.032;2022-12-18T21:14:56;71.23;;;25.63;;
40601;SDS011;26310;50.278;19.032;2022-12-18T21:20:01;72.43;;;25.17;;
40601;SDS011;26310;50.278;19.032;2022-12-18T21:25:05;52.27;;;24.03;;
40601;SDS011;26310;50.278;19.032;2022-12-18T21:30:09;62.17;;;24.83;;
40601;SDS011;26310;50.278;19.032;2022-12-18T21:35:16;80.60;;;25.47;;
40601;SDS011;26310;50.278;19.032;2022-12-18T21:40:21;44.77;;;22.57;;
40601;SDS011;26310;50.278;19.032;2022-12-18T21:45:25;72.67;;;25.80;;
40601;SDS011;26310;50.278;19.032;2022-12-18T21:50:28;57.90;;;24.33;;
40601;SDS011;26310;50.278;19.032;2022-12-18T21:55:34;53.77;;;23.80;;
40601;SDS011;26310;50.278;19.032;2022-12-18T22:00:38;48.20;;;22.70;;
40601;SDS011;26310;50.278;19.032;2022-12-18T22:05:48;60.47;;;24.03;;
40601;SDS011;26310;50.278;19.032;2022-12-18T22:11:10;60.37;;;24.37;;
40601;SDS011;26310;50.278;19.032;2022-12-18T22:16:15;51.43;;;23.17;;
40601;SDS011;26310;50.278;19.032;2022-12-18T22:21:26;58.90;;;22.03;;
40601;SDS011;26310;50.278;19.032;2022-12-18T22:26:32;70.87;;;25.97;;
40601;SDS011;26310;50.278;19.032;2022-12-18T22:31:41;69.23;;;27.43;;
40601;SDS011;26310;50.278;19.032;2022-12-18T22:36:45;71.23;;;29.70;;
40601;SDS011;26310;50.278;19.032;2022-12-18T22:41:49;75.57;;;27.93;;
40601;SDS011;26310;50.278;19.032;2022-12-18T22:46:54;57.90;;;23.03;;
40601;SDS011;26310;50.278;19.032;2022-12-18T22:52:08;52.27;;;20.47;;
40601;SDS011;26310;50.278;19.032;2022-12-18T22:57:11;51.13;;;20.03;;
40601;SDS011;26310;50.278;19.032;2022-12-18T23:02:15;41.60;;;18.67;;
40601;SDS011;26310;50.278;19.032;2022-12-18T23:07:20;35.03;;;17.73;;
40601;SDS011;26310;50.278;19.032;2022-12-18T23:12:23;49.73;;;23.50;;
40601;SDS011;26310;50.278;19.032;2022-12-18T23:17:27;62.17;;;26.90;;
40601;SDS011;26310;50.278;19.032;2022-12-18T23:22:31;65.93;;;27.63;;
40601;SDS011;26310;50.278;19.032;2022-12-18T23:27:34;47.13;;;23.33;;
40601;SDS011;26310;50.278;19.032;2022-12-18T23:32:37;45.97;;;22.00;;
40601;SDS011;26310;50.278;19.032;2022-12-18T23:37:41;55.80;;;23.23;;
40601;SDS011;26310;50.278;19.032;2022-12-18T23:43:01;58.07;;;24.30;;
40601;SDS011;26310;50.278;19.032;2022-12-18T23:48:05;63.40;;;25.17;;
40601;SDS011;26310;50.278;19.032;2022-12-18T23:53:08;60.83;;;24.77;;
40601;SDS011;26310;50.278;19.032;2022-12-18T23:58:16;47.37;;;22.07;;
